createdAt,value
2019-04-24T04:05:06.291Z,73.00
2019-04-24T04:07:54.729Z,73.73
2019-04-24T04:09:05.497Z,73.00
2019-04-24T04:13:53.087Z,72.51
2019-04-24T04:14:56.999Z,73.49
2019-04-24T04:15:45.281Z,71.04
2019-04-24T04:19:48.832Z,76.66
2019-04-24T04:20:46.642Z,75.93
2019-04-24T04:22:07.633Z,73.97
2019-04-24T04:26:50.737Z,75.44
2019-04-24T04:31:17.742Z,75.44
2019-04-24T04:31:42.228Z,74.95
2019-04-24T04:34:03.873Z,74.46
2019-04-24T04:34:52.202Z,75.68
2019-04-24T04:36:00.533Z,75.44
2019-04-24T04:38:04.037Z,75.44
2019-04-24T04:41:52.649Z,75.44
2019-04-24T04:47:07.525Z,75.68
2019-04-24T04:51:00.943Z,75.93
2019-04-24T04:53:13.026Z,75.93
2019-04-24T04:54:06.892Z,74.46
2019-04-24T04:55:53.395Z,73.97
2019-04-24T04:56:13.234Z,74.95
2019-04-24T04:57:15.761Z,74.22
2019-04-24T04:58:58.046Z,75.44
2019-04-24T05:04:01.656Z,75.68
2019-04-24T05:07:22.502Z,76.66
2019-04-24T05:10:03.232Z,76.90
2019-04-24T05:10:55.373Z,76.66
2019-04-24T05:12:04.756Z,76.17
2019-04-24T05:14:18.390Z,76.66
2019-04-24T05:18:12.225Z,75.93
2019-04-24T05:20:57.500Z,76.17
2019-04-24T05:22:51.158Z,76.42
2019-04-24T05:26:12.341Z,74.95
2019-04-24T05:29:03.013Z,74.95
2019-04-24T05:29:53.399Z,75.44
2019-04-24T05:30:47.244Z,75.93
2019-04-24T05:33:13.448Z,74.95
2019-04-24T05:35:50.043Z,75.44
2019-04-24T05:36:58.502Z,75.44
2019-04-24T05:42:29.818Z,73.97
2019-04-24T05:44:59.883Z,74.71
2019-04-24T05:46:18.346Z,74.46
2019-04-24T05:46:49.433Z,75.93
2019-04-24T05:47:59.130Z,73.00
2019-04-24T05:51:54.882Z,72.51
2019-04-24T05:53:06.999Z,73.24
2019-04-24T05:53:58.849Z,73.73
2019-04-24T05:54:55.089Z,74.95
2019-04-24T05:57:11.111Z,75.93
2019-04-24T05:58:14.568Z,75.44
2019-04-24T05:59:05.437Z,73.97
2019-04-24T06:00:02.554Z,73.49
2019-04-24T06:01:00.987Z,74.46
2019-04-24T06:02:20.381Z,76.42
2019-04-24T06:02:58.604Z,74.71
2019-04-24T06:04:13.420Z,74.46
2019-04-24T06:06:06.213Z,73.97
2019-04-24T06:08:59.194Z,74.71
2019-04-24T06:09:59.588Z,76.17
2019-04-24T06:11:58.198Z,76.17
2019-04-24T06:13:14.505Z,76.66
2019-04-24T06:14:58.500Z,76.90
2019-04-24T06:15:59.177Z,76.42
2019-04-24T06:17:08.005Z,76.42
2019-04-24T06:18:10.683Z,76.90
2019-04-24T06:19:20.892Z,76.90
2019-04-24T06:22:01.846Z,73.24
2019-04-24T06:24:57.271Z,74.22
2019-04-24T06:27:15.342Z,75.44
2019-04-24T06:28:05.454Z,73.49
2019-04-24T06:30:03.673Z,74.22
2019-04-24T06:32:59.971Z,74.46
2019-04-24T06:34:10.443Z,73.97
2019-04-24T06:36:06.500Z,71.53
2019-04-24T06:39:13.157Z,71.53
2019-04-24T06:40:20.990Z,71.53
2019-04-24T06:43:09.158Z,70.56
2019-04-24T06:44:00.235Z,71.53
2019-04-24T06:45:57.395Z,69.34
2019-04-24T06:47:39.692Z,71.04
2019-04-24T06:50:16.841Z,70.80
2019-04-24T06:52:14.149Z,71.29
2019-04-24T06:53:11.249Z,73.97
2019-04-24T06:54:06.546Z,72.27
2019-04-24T06:55:23.974Z,73.00
2019-04-24T06:56:05.443Z,73.00
2019-04-24T06:57:19.769Z,72.75
2019-04-24T06:58:07.443Z,74.22
2019-04-24T06:59:03.615Z,74.22
2019-04-24T07:00:28.303Z,73.24
2019-04-24T07:01:14.637Z,70.31
2019-04-24T07:02:07.795Z,70.31
2019-04-24T07:06:22.256Z,70.56
2019-04-24T07:07:03.546Z,70.80
2019-04-24T07:07:39.880Z,69.58
2019-04-24T07:10:22.746Z,71.29
2019-04-24T07:11:11.591Z,70.80
2019-04-24T07:12:18.201Z,72.27
2019-04-24T07:14:18.956Z,74.95
2019-04-24T07:15:08.898Z,69.34
2019-04-24T07:16:13.513Z,69.09
2019-04-24T07:17:29.433Z,71.78
2019-04-24T07:18:17.031Z,70.56
2019-04-24T07:19:12.370Z,70.80
2019-04-24T07:20:05.785Z,71.04
2019-04-24T07:22:12.276Z,70.56
2019-04-24T07:23:15.492Z,71.78
2019-04-24T07:24:19.232Z,71.04
2019-04-24T07:25:06.370Z,72.27
2019-04-24T07:26:16.257Z,71.04
2019-04-24T07:27:19.964Z,72.51
2019-04-24T07:29:16.349Z,72.51
2019-04-24T07:30:10.367Z,71.53
2019-04-24T07:31:41.067Z,72.02
2019-04-24T07:32:33.262Z,71.78
2019-04-24T07:33:15.607Z,72.27
2019-04-24T07:34:36.713Z,73.97
2019-04-24T07:36:37.332Z,73.00
2019-04-24T07:37:20.547Z,71.53
2019-04-24T07:38:16.702Z,71.78
2019-04-24T07:39:19.650Z,71.53
2019-04-24T07:40:04.438Z,71.04
2019-04-24T07:41:28.711Z,73.24
2019-04-24T07:42:09.908Z,73.97
2019-04-24T07:44:13.046Z,71.29
2019-04-24T07:45:26.918Z,71.78
2019-04-24T07:46:16.232Z,75.20
2019-04-24T07:47:17.798Z,72.27
2019-04-24T07:48:19.326Z,72.51
2019-04-24T07:50:19.767Z,71.29
2019-04-24T07:51:44.039Z,71.04
2019-04-24T07:52:25.867Z,73.00
2019-04-24T07:54:24.248Z,70.56
2019-04-24T07:55:08.304Z,70.31
2019-04-24T07:56:40.286Z,70.31
2019-04-24T07:57:33.724Z,70.56
2019-04-24T07:58:15.459Z,68.85
2019-04-24T08:01:23.227Z,68.60
2019-04-24T08:02:45.207Z,70.80
2019-04-24T08:03:29.109Z,68.60
2019-04-24T08:05:16.458Z,67.87
2019-04-24T08:06:35.260Z,66.89
2019-04-24T08:07:19.267Z,71.04
2019-04-24T08:08:27.218Z,74.71
2019-04-24T08:09:47.826Z,68.85
2019-04-24T08:11:21.960Z,66.65
2019-04-24T08:12:26.324Z,68.36
2019-04-24T08:13:27.941Z,67.87
2019-04-24T08:14:24.452Z,68.12
2019-04-24T08:16:15.003Z,68.36
2019-04-24T08:18:28.060Z,66.65
2019-04-24T08:19:32.871Z,64.45
2019-04-24T08:20:33.823Z,71.29
2019-04-24T08:21:20.101Z,69.09
2019-04-24T08:22:41.162Z,70.31
2019-04-24T08:24:32.832Z,66.89
2019-04-24T08:25:18.991Z,70.07
2019-04-24T08:26:21.423Z,64.21
2019-04-24T08:27:36.779Z,65.92
2019-04-24T08:29:22.667Z,70.80
2019-04-24T08:30:28.769Z,67.14
2019-04-24T08:31:38.962Z,68.36
2019-04-24T08:32:33.145Z,69.34
2019-04-24T08:33:54.459Z,67.87
2019-04-24T08:35:37.940Z,70.07
2019-04-24T08:36:19.880Z,69.58
2019-04-24T08:38:38.792Z,68.12
2019-04-24T08:41:30.768Z,65.19
2019-04-24T08:44:38.067Z,69.58
2019-04-24T08:45:20.260Z,68.12
2019-04-24T08:47:36.069Z,67.14
2019-04-24T08:48:55.379Z,70.56
2019-04-24T08:49:29.535Z,68.36
2019-04-24T08:50:56.636Z,67.63
2019-04-24T08:51:28.573Z,65.19
2019-04-24T08:52:47.691Z,66.41
2019-04-24T08:53:40.177Z,65.19
2019-04-24T08:54:48.955Z,64.21
2019-04-24T08:55:41.397Z,69.34
2019-04-24T08:56:28.514Z,70.07
2019-04-24T08:57:40.905Z,66.41
2019-04-24T08:58:30.389Z,70.56
2019-04-24T08:59:49.127Z,69.58
2019-04-24T09:00:38.357Z,66.65
2019-04-24T09:01:42.259Z,64.45
2019-04-24T09:02:45.152Z,67.14
2019-04-24T09:03:48.086Z,67.63
2019-04-24T09:04:47.146Z,65.19
2019-04-24T09:05:42.413Z,64.70
2019-04-24T09:06:38.863Z,68.12
2019-04-24T09:07:42.033Z,65.19
2019-04-24T09:08:44.960Z,68.60
2019-04-24T09:09:46.460Z,64.21
2019-04-24T09:11:31.440Z,62.74
2019-04-24T09:12:41.529Z,64.70
2019-04-24T09:13:39.579Z,68.12
2019-04-24T09:14:28.947Z,64.45
2019-04-24T09:15:47.785Z,68.60
2019-04-24T09:17:30.944Z,70.07
2019-04-24T09:18:46.972Z,64.94
2019-04-24T09:20:35.330Z,67.38
2019-04-24T09:21:31.226Z,69.58
2019-04-24T09:22:39.137Z,66.41
2019-04-24T09:24:06.892Z,69.34
2019-04-24T09:24:52.580Z,67.87
2019-04-24T09:25:39.980Z,67.14
2019-04-24T09:26:55.254Z,68.12
2019-04-24T09:28:48.218Z,67.38
2019-04-24T09:29:55.647Z,69.09
2019-04-24T09:30:33.642Z,66.89
2019-04-24T09:31:52.033Z,65.92
2019-04-24T09:34:35.392Z,67.38
2019-04-24T09:36:01.142Z,68.12
2019-04-24T09:36:55.559Z,68.36
2019-04-24T09:37:43.706Z,65.92
2019-04-24T09:39:45.489Z,66.41
2019-04-24T09:43:45.920Z,69.58
2019-04-24T09:44:41.441Z,71.29
2019-04-24T09:45:37.165Z,65.43
2019-04-24T09:47:54.403Z,64.94
2019-04-24T09:48:50.537Z,66.16
2019-04-24T09:49:43.230Z,63.23
2019-04-24T09:51:39.102Z,68.36
2019-04-24T09:52:55.439Z,68.12
2019-04-24T09:55:43.567Z,61.77
2019-04-24T09:56:48.133Z,67.14
2019-04-24T09:57:47.135Z,63.48
2019-04-24T09:59:02.460Z,62.26
2019-04-24T09:59:41.741Z,77.88
2019-04-24T10:01:16.025Z,73.00
2019-04-24T10:02:06.601Z,61.77
2019-04-24T10:03:47.004Z,60.30
2019-04-24T10:04:54.699Z,60.06
2019-04-24T10:05:56.317Z,65.67
2019-04-24T10:07:45.430Z,66.41
2019-04-24T10:08:39.764Z,63.48
2019-04-24T10:09:40.797Z,68.12
2019-04-24T10:10:42.851Z,64.45
2019-04-24T10:12:48.089Z,58.35
2019-04-24T10:13:45.498Z,64.94
2019-04-24T10:14:39.159Z,63.96
2019-04-24T10:15:48.483Z,67.14
2019-04-24T10:16:55.703Z,63.48
2019-04-24T10:17:51.577Z,68.36
2019-04-24T10:19:00.910Z,63.23
2019-04-24T10:20:33.769Z,64.45
2019-04-24T10:21:42.592Z,64.21
2019-04-24T10:22:57.831Z,63.48
2019-04-24T10:23:50.227Z,67.63
2019-04-24T10:24:50.261Z,62.99
2019-04-24T10:25:36.700Z,62.74
2019-04-24T10:26:46.609Z,69.58
2019-04-24T10:29:13.795Z,64.94
2019-04-24T10:29:41.571Z,65.19
2019-04-24T10:30:50.603Z,65.19
2019-04-24T10:32:04.184Z,63.72
2019-04-24T10:32:44.863Z,68.60
2019-04-24T10:33:51.272Z,69.34
2019-04-24T10:35:43.446Z,65.67
2019-04-24T10:36:59.352Z,63.72
2019-04-24T10:38:40.237Z,60.79
2019-04-24T10:40:00.828Z,66.89
2019-04-24T10:40:52.132Z,59.81
2019-04-24T10:41:55.325Z,61.52
2019-04-24T10:42:48.489Z,66.41
2019-04-24T10:43:49.887Z,67.63
2019-04-24T10:45:48.751Z,62.74
2019-04-24T10:48:57.983Z,62.99
2019-04-24T10:52:03.809Z,61.77
2019-04-24T10:52:51.677Z,59.81
2019-04-24T10:53:48.727Z,61.52
2019-04-24T10:55:06.375Z,63.72
2019-04-24T10:56:49.853Z,54.20
2019-04-24T10:57:56.340Z,69.58
2019-04-24T10:58:45.546Z,64.94
2019-04-24T11:02:50.980Z,65.19
2019-04-24T11:07:01.777Z,61.52
2019-04-24T11:08:02.532Z,65.43
2019-04-24T11:10:52.484Z,70.31
2019-04-24T11:13:14.486Z,60.55
2019-04-24T11:13:55.749Z,62.26
2019-04-24T11:14:55.400Z,61.77
2019-04-24T11:15:59.366Z,68.12
2019-04-24T11:17:07.710Z,66.89
2019-04-24T11:17:55.951Z,65.43
2019-04-24T11:21:17.305Z,65.67
2019-04-24T11:21:54.998Z,62.50
2019-04-24T11:23:00.582Z,68.12
2019-04-24T11:23:54.585Z,65.19
2019-04-24T11:25:05.931Z,70.07
2019-04-24T11:27:01.871Z,70.07
2019-04-24T11:28:05.756Z,63.48
2019-04-24T11:29:17.334Z,68.12
2019-04-24T11:30:01.732Z,62.50
2019-04-24T11:30:54.892Z,61.77
2019-04-24T11:32:01.592Z,64.21
2019-04-24T11:33:01.636Z,65.43
2019-04-24T11:35:12.957Z,71.29
2019-04-24T11:35:55.018Z,61.52
2019-04-24T11:39:09.205Z,63.23
2019-04-24T11:40:22.847Z,71.78
2019-04-24T11:40:50.742Z,63.96
2019-04-24T11:41:56.692Z,65.43
2019-04-24T11:42:54.359Z,63.96
2019-04-24T11:44:05.865Z,62.26
2019-04-24T11:45:07.197Z,64.70
2019-04-24T11:45:52.583Z,66.89
2019-04-24T11:50:10.370Z,68.12
2019-04-24T11:51:16.965Z,73.97
2019-04-24T11:53:10.230Z,64.45
2019-04-24T11:53:57.134Z,60.55
2019-04-24T11:55:58.868Z,58.59
2019-04-24T11:58:48.426Z,59.81
2019-04-24T11:59:42.257Z,59.33
2019-04-24T12:00:54.292Z,63.96
2019-04-24T12:02:01.855Z,67.87
2019-04-24T12:02:52.452Z,64.70
2019-04-24T12:05:02.625Z,63.96
2019-04-24T12:06:07.010Z,65.67
2019-04-24T12:08:09.170Z,62.99
2019-04-24T12:10:01.567Z,66.41
2019-04-24T12:11:18.536Z,70.80
2019-04-24T12:11:53.951Z,63.72
2019-04-24T12:13:02.789Z,71.53
2019-04-24T12:16:09.438Z,70.31
2019-04-24T12:17:08.287Z,59.33
2019-04-24T12:18:11.540Z,63.48
2019-04-24T12:18:57.706Z,63.72
2019-04-24T12:20:05.429Z,62.01
2019-04-24T12:21:08.682Z,65.19
2019-04-24T12:22:01.699Z,66.89
2019-04-24T12:22:57.383Z,64.94
2019-04-24T12:26:15.313Z,63.48
2019-04-24T12:26:55.826Z,63.23
2019-04-24T12:27:58.895Z,65.67
2019-04-24T12:30:58.104Z,60.30
2019-04-24T12:32:10.028Z,64.21
2019-04-24T12:32:55.003Z,63.96
2019-04-24T12:33:56.385Z,63.72
2019-04-24T12:35:00.729Z,66.65
2019-04-24T12:36:00.263Z,67.14
2019-04-24T12:37:06.157Z,64.94
2019-04-24T12:39:04.189Z,60.79
2019-04-24T12:40:09.705Z,68.60
2019-04-24T12:41:02.552Z,58.11
2019-04-24T12:42:14.776Z,52.49
2019-04-24T12:44:10.142Z,63.48
2019-04-24T12:45:05.621Z,68.36
2019-04-24T12:46:09.650Z,72.51
2019-04-24T12:47:14.017Z,70.56
2019-04-24T12:47:58.778Z,63.72
2019-04-24T12:49:09.637Z,61.52
2019-04-24T12:50:00.158Z,72.02
2019-04-24T12:51:20.019Z,74.46
2019-04-24T12:52:03.378Z,64.70
2019-04-24T12:54:19.881Z,70.80
2019-04-24T12:56:27.200Z,64.45
2019-04-24T12:59:24.424Z,66.65
2019-04-24T12:59:55.062Z,61.28
2019-04-24T13:02:11.406Z,67.87
2019-04-24T13:03:12.330Z,60.79
2019-04-24T13:04:19.019Z,63.48
2019-04-24T13:05:15.134Z,66.41
2019-04-24T13:06:02.468Z,65.67
2019-04-24T13:07:07.427Z,67.63
2019-04-24T13:08:11.143Z,71.29
2019-04-24T13:09:15.944Z,63.23
2019-04-24T13:10:15.622Z,69.58
2019-04-24T13:11:19.768Z,69.82
2019-04-24T13:16:14.015Z,60.30
2019-04-24T13:18:24.002Z,62.99
2019-04-24T13:19:14.466Z,62.50
2019-04-24T13:19:46.922Z,62.74
2019-04-24T13:20:49.026Z,61.04
2019-04-24T13:21:51.203Z,60.79
2019-04-24T13:22:57.467Z,63.48
2019-04-24T13:24:01.274Z,64.94
2019-04-24T13:25:05.125Z,66.16
2019-04-24T13:26:17.083Z,65.67
2019-04-24T13:27:16.227Z,61.04
2019-04-24T13:30:34.864Z,63.23
2019-04-24T13:31:23.602Z,54.20
2019-04-24T13:33:25.203Z,61.28
2019-04-24T13:34:21.445Z,62.74
2019-04-24T13:37:20.127Z,62.01
2019-04-24T13:38:22.785Z,63.23
2019-04-24T13:39:25.110Z,63.96
2019-04-24T13:40:39.578Z,63.72
2019-04-24T13:41:44.916Z,61.52
2019-04-24T13:42:19.526Z,58.35
2019-04-24T13:43:51.730Z,64.21
2019-04-24T13:46:10.254Z,64.21
2019-04-24T13:47:18.153Z,73.73
2019-04-24T13:48:35.337Z,61.28
2019-04-24T13:49:21.622Z,66.16
2019-04-24T13:50:32.468Z,62.26
2019-04-24T13:51:13.882Z,67.38
2019-04-24T13:53:34.134Z,60.30
2019-04-24T13:56:18.648Z,61.28
2019-04-24T13:57:22.387Z,60.30
2019-04-24T13:58:38.859Z,69.58
2019-04-24T13:59:22.406Z,78.61
2019-04-24T14:02:54.249Z,66.16
2019-04-24T14:04:21.720Z,67.38
2019-04-24T14:07:28.794Z,72.27
2019-04-24T14:08:45.526Z,64.21
2019-04-24T14:10:49.200Z,68.12
2019-04-24T14:12:20.152Z,66.16
2019-04-24T14:13:25.915Z,64.45
2019-04-24T14:14:51.728Z,68.36
2019-04-24T14:17:30.923Z,66.41
2019-04-24T14:18:50.065Z,63.48
2019-04-24T14:19:31.639Z,70.31
2019-04-24T14:20:30.265Z,63.96
2019-04-24T14:21:27.177Z,65.92
2019-04-24T14:22:19.957Z,64.70
2019-04-24T14:23:46.918Z,69.58
2019-04-24T14:24:24.886Z,65.67
2019-04-24T14:25:28.775Z,60.79
2019-04-24T14:27:47.530Z,62.26
2019-04-24T14:28:37.395Z,65.19
2019-04-24T14:29:28.188Z,66.89
2019-04-24T14:32:27.646Z,62.74
2019-04-24T14:33:35.358Z,69.09
2019-04-24T14:34:37.248Z,67.14
2019-04-24T14:35:38.435Z,73.00
2019-04-24T14:36:32.959Z,74.46
2019-04-24T14:38:30.975Z,62.74
2019-04-24T14:39:28.781Z,65.19
2019-04-24T14:41:31.071Z,62.50
2019-04-24T14:42:33.269Z,64.70
2019-04-24T14:43:47.381Z,66.16
2019-04-24T14:45:54.716Z,65.19
2019-04-24T14:47:33.583Z,66.41
2019-04-24T14:48:36.600Z,63.23
2019-04-24T14:50:37.432Z,66.16
2019-04-24T14:51:34.693Z,65.19
2019-04-24T14:52:34.911Z,64.94
2019-04-24T14:53:44.078Z,64.70
2019-04-24T14:54:29.760Z,62.50
2019-04-24T14:55:31.429Z,66.16
2019-04-24T14:56:37.701Z,65.67
2019-04-24T14:58:37.130Z,66.41
2019-04-24T14:59:34.214Z,64.21
2019-04-24T15:00:44.708Z,65.67
2019-04-24T15:01:41.473Z,70.80
2019-04-24T15:03:32.357Z,70.56
2019-04-24T15:04:55.308Z,67.38
2019-04-24T15:05:36.540Z,66.65
2019-04-24T15:06:43.409Z,77.88
2019-04-24T15:07:41.760Z,64.70
2019-04-24T15:09:32.522Z,66.16
2019-04-24T15:10:37.580Z,65.67
2019-04-24T15:11:51.221Z,63.72
2019-04-24T15:12:40.040Z,62.99
2019-04-24T15:13:51.881Z,68.60
2019-04-24T15:15:32.499Z,64.45
2019-04-24T15:16:53.276Z,67.63
2019-04-24T15:17:43.780Z,66.16
2019-04-24T15:18:41.534Z,65.92
2019-04-24T15:19:43.291Z,65.19
2019-04-24T15:20:32.386Z,67.14
2019-04-24T15:21:44.833Z,64.21
2019-04-24T15:22:47.694Z,66.65
2019-04-24T15:26:45.849Z,63.72
2019-04-24T15:28:04.244Z,66.89
2019-04-24T15:28:41.608Z,67.14
2019-04-24T15:30:37.390Z,66.41
2019-04-24T15:31:38.352Z,64.70
2019-04-24T15:32:43.109Z,67.63
2019-04-24T15:33:46.287Z,63.72
2019-04-24T15:34:53.253Z,63.23
2019-04-24T15:37:03.892Z,65.67
2019-04-24T15:38:39.646Z,66.41
2019-04-24T15:39:57.017Z,62.26
2019-04-24T15:42:42.728Z,62.74
2019-04-24T15:43:38.251Z,72.51
2019-04-24T15:44:49.234Z,64.70
2019-04-24T15:45:44.986Z,64.45
2019-04-24T15:46:51.112Z,65.92
2019-04-24T15:48:59.407Z,64.70
2019-04-24T15:49:44.611Z,64.94
2019-04-24T15:50:50.205Z,64.70
2019-04-24T15:52:13.197Z,66.16
2019-04-24T15:53:13.646Z,66.16
2019-04-24T15:54:13.539Z,64.45
2019-04-24T15:55:13.715Z,63.48
2019-04-24T15:56:13.891Z,64.70
2019-04-24T15:57:14.074Z,66.16
2019-04-24T15:58:20.244Z,70.31
2019-04-24T15:59:37.284Z,76.66
2019-04-24T16:00:47.719Z,64.21
2019-04-24T16:01:39.853Z,65.43
2019-04-24T16:03:01.551Z,67.38
2019-04-24T16:03:58.694Z,65.67
2019-04-24T16:04:52.345Z,65.92
2019-04-24T16:05:15.451Z,66.65
2019-04-24T16:06:15.626Z,66.65
2019-04-24T16:07:15.810Z,63.48
2019-04-24T16:08:15.977Z,63.96
2019-04-24T16:09:16.143Z,64.21
2019-04-24T16:10:16.320Z,66.89
2019-04-24T16:11:16.495Z,68.85
2019-04-24T16:12:16.673Z,68.36
2019-04-24T16:13:20.886Z,69.09
2019-04-24T16:14:32.053Z,66.41
2019-04-24T16:15:51.167Z,69.58
2019-04-24T16:17:52.286Z,72.02
2019-04-24T16:21:06.823Z,67.14
2019-04-24T16:21:45.348Z,66.89
2019-04-24T16:22:47.499Z,68.60
2019-04-24T16:24:17.155Z,68.12
2019-04-24T16:24:56.972Z,68.36
2019-04-24T16:25:52.087Z,67.63
2019-04-24T16:28:54.466Z,69.09
2019-04-24T16:29:49.747Z,68.12
2019-04-24T16:30:47.133Z,68.36
2019-04-24T16:32:08.390Z,67.63
2019-04-24T16:34:49.519Z,67.38
2019-04-24T16:36:58.558Z,66.89
2019-04-24T16:37:52.539Z,68.36
2019-04-24T16:39:01.906Z,67.38
2019-04-24T16:40:02.214Z,69.09
2019-04-24T16:41:04.187Z,69.58
2019-04-24T16:42:05.726Z,67.38
2019-04-24T16:43:12.894Z,68.60
2019-04-24T16:44:05.893Z,69.34
2019-04-24T16:45:03.627Z,70.56
2019-04-24T16:46:10.475Z,68.36
2019-04-24T16:46:49.772Z,89.11
2019-04-24T16:48:47.061Z,68.12
2019-04-24T16:50:14.489Z,71.78
2019-04-24T16:51:07.426Z,73.00
2019-04-24T16:52:00.764Z,73.24
2019-04-24T16:54:00.592Z,73.49
2019-04-24T16:54:55.018Z,73.97
2019-04-24T16:56:10.121Z,73.00
2019-04-24T16:56:59.072Z,67.87
2019-04-24T16:58:07.775Z,67.38
2019-04-24T16:58:51.540Z,67.87
2019-04-24T16:59:48.178Z,68.12
2019-04-24T17:01:16.856Z,66.65
2019-04-24T17:01:59.445Z,69.82
2019-04-24T17:03:02.263Z,66.41
2019-04-24T17:04:59.797Z,68.60
2019-04-24T17:06:02.102Z,67.63
2019-04-24T17:06:53.274Z,70.31
2019-04-24T17:10:03.547Z,71.78
2019-04-24T17:11:01.165Z,71.78
2019-04-24T17:12:15.944Z,72.75
2019-04-24T17:13:04.930Z,72.02
2019-04-24T17:14:08.731Z,73.24
2019-04-24T17:15:04.166Z,73.49
2019-04-24T17:16:00.924Z,72.75
2019-04-24T17:17:24.149Z,73.73
2019-04-24T17:17:59.439Z,73.00
2019-04-24T17:19:14.342Z,74.46
2019-04-24T17:20:03.642Z,73.24
2019-04-24T17:21:16.404Z,73.00
2019-04-24T17:21:59.269Z,74.22
2019-04-24T17:23:58.248Z,73.24
2019-04-24T17:25:14.745Z,73.49
2019-04-24T17:26:07.489Z,80.81
2019-04-24T17:27:07.743Z,75.93
2019-04-24T17:29:21.495Z,78.61
2019-04-24T17:30:02.908Z,77.39
2019-04-24T17:31:02.365Z,71.04
2019-04-24T17:32:04.135Z,73.49
2019-04-24T17:33:04.865Z,73.73
2019-04-24T17:34:10.926Z,71.04
2019-04-24T17:36:06.672Z,74.22
2019-04-24T17:36:31.659Z,74.46
2019-04-24T17:37:31.390Z,74.95
2019-04-24T17:38:31.564Z,75.20
2019-04-24T17:39:31.764Z,74.22
2019-04-24T17:40:31.897Z,74.95
2019-04-24T17:41:39.037Z,74.95
2019-04-24T17:42:47.322Z,74.71
2019-04-24T17:44:18.128Z,75.44
2019-04-24T17:45:10.833Z,75.44
2019-04-24T17:46:05.240Z,75.20
2019-04-24T17:48:03.596Z,74.71
2019-04-24T17:51:05.507Z,74.71
2019-04-24T17:53:07.906Z,74.95
2019-04-24T17:54:05.075Z,74.71
2019-04-24T17:54:59.512Z,73.97
2019-04-24T17:56:00.775Z,74.71
2019-04-24T17:57:09.947Z,73.97
2019-04-24T17:58:35.284Z,75.20
2019-04-24T17:59:35.128Z,75.44
2019-04-24T18:00:35.291Z,74.71
2019-04-24T18:01:35.461Z,75.44
2019-04-24T18:02:35.629Z,75.44
2019-04-24T18:03:35.802Z,75.44
2019-04-24T18:04:35.972Z,75.44
2019-04-24T18:05:36.187Z,75.20
2019-04-24T18:06:36.300Z,75.68
2019-04-24T18:07:36.481Z,73.73
2019-04-24T18:08:36.635Z,75.93
2019-04-24T18:09:36.811Z,74.95
2019-04-24T18:10:36.969Z,75.20
2019-04-24T18:11:37.139Z,74.71
2019-04-24T18:12:37.317Z,74.22
2019-04-24T18:13:37.461Z,73.97
2019-04-24T18:14:37.657Z,74.71
2019-04-24T18:15:37.811Z,74.95
2019-04-24T18:16:37.981Z,74.95
2019-04-24T18:17:38.152Z,75.20
2019-04-24T18:18:38.322Z,74.71
2019-04-24T18:19:38.488Z,74.95
2019-04-24T18:20:38.660Z,74.95
2019-04-24T18:21:38.827Z,77.64
2019-04-24T18:22:40.463Z,74.95
2019-04-24T18:23:39.184Z,74.95
2019-04-24T18:24:39.353Z,74.46
2019-04-24T18:25:39.508Z,74.95
2019-04-24T18:26:39.670Z,75.44
2019-04-24T18:27:39.847Z,74.71
2019-04-24T18:28:41.518Z,74.46
2019-04-24T18:29:40.212Z,74.95
2019-04-24T18:30:40.371Z,74.71
2019-04-24T18:31:42.050Z,74.95
2019-04-24T18:32:41.950Z,74.22
2019-04-24T18:33:42.111Z,75.20
2019-04-24T18:34:41.458Z,69.82
2019-04-24T18:35:42.555Z,69.82
2019-04-24T18:36:41.385Z,70.31
2019-04-24T18:37:42.892Z,70.80
2019-04-24T18:38:42.076Z,70.56
2019-04-24T18:39:42.109Z,70.80
2019-04-24T18:40:42.054Z,70.56
2019-04-24T18:41:42.227Z,71.29
2019-04-24T18:42:42.395Z,71.04
2019-04-24T18:43:42.553Z,71.29
2019-04-24T18:44:42.729Z,70.80
2019-04-24T18:45:42.881Z,71.29
2019-04-24T18:46:43.050Z,70.56
2019-04-24T18:47:43.242Z,70.07
2019-04-24T18:48:43.402Z,71.53
2019-04-24T18:49:43.545Z,70.07
2019-04-24T18:50:43.730Z,70.07
2019-04-24T18:51:43.886Z,73.00
2019-04-24T18:52:49.979Z,68.36
2019-04-24T18:53:44.258Z,69.82
2019-04-24T18:54:44.430Z,71.04
2019-04-24T18:55:44.565Z,72.27
2019-04-24T18:56:44.787Z,71.53
2019-04-24T18:57:44.942Z,72.75
2019-04-24T18:58:45.078Z,72.02
2019-04-24T18:59:45.270Z,72.27
2019-04-24T19:00:45.485Z,73.73
2019-04-24T19:01:45.631Z,74.22
2019-04-24T19:02:45.814Z,74.22
2019-04-24T19:03:45.971Z,74.46
2019-04-24T19:04:46.141Z,74.95
2019-04-24T19:05:46.365Z,74.95
2019-04-24T19:06:46.510Z,74.46
2019-04-24T19:07:46.734Z,74.95
2019-04-24T19:08:46.919Z,74.95
2019-04-24T19:09:47.018Z,75.68
2019-04-24T19:10:47.190Z,75.20
2019-04-24T19:11:47.399Z,75.44
2019-04-24T19:12:47.613Z,75.68
2019-04-24T19:13:47.735Z,75.44
2019-04-24T19:14:48.918Z,75.68
2019-04-24T19:15:48.155Z,74.95
2019-04-24T19:16:48.339Z,76.66
2019-04-24T19:17:54.678Z,75.20
2019-04-24T19:18:48.665Z,75.44
2019-04-24T19:19:48.872Z,75.93
2019-04-24T19:20:49.024Z,74.95
2019-04-24T19:21:49.172Z,75.20
2019-04-24T19:23:01.465Z,72.27
2019-04-24T19:23:49.537Z,75.93
2019-04-24T19:24:51.412Z,73.49
2019-04-24T19:25:52.843Z,74.46
2019-04-24T19:26:51.590Z,73.97
2019-04-24T19:27:51.073Z,73.00
2019-04-24T19:28:51.730Z,73.97
2019-04-24T19:29:51.128Z,74.22
2019-04-24T19:30:52.263Z,73.24
2019-04-24T19:31:51.410Z,73.24
2019-04-24T19:32:51.891Z,73.49
2019-04-24T19:33:51.502Z,73.73
2019-04-24T19:34:52.209Z,89.11
2019-04-24T19:35:51.572Z,73.73
2019-04-24T19:36:51.745Z,74.22
2019-04-24T19:37:52.520Z,73.97
2019-04-24T19:38:52.056Z,74.22
2019-04-24T19:39:52.203Z,74.22
2019-04-24T19:40:52.323Z,74.71
2019-04-24T19:41:52.682Z,73.49
2019-04-24T19:42:52.677Z,73.73
2019-04-24T19:43:52.830Z,73.24
2019-04-24T19:44:52.999Z,73.97
2019-04-24T19:45:53.165Z,73.00
2019-04-24T19:46:53.340Z,73.24
2019-04-24T19:47:53.500Z,73.00
2019-04-24T19:48:53.681Z,73.24
2019-04-24T19:50:05.153Z,73.24
2019-04-24T19:50:53.970Z,73.49
2019-04-24T19:51:54.130Z,73.24
2019-04-24T19:52:54.402Z,74.22
2019-04-24T19:53:54.523Z,73.24
2019-04-24T19:54:54.696Z,73.24
2019-04-24T19:55:54.810Z,73.24
2019-04-24T19:56:55.031Z,73.49
2019-04-24T19:57:55.153Z,72.75
2019-04-24T19:58:57.506Z,73.24
2019-04-24T19:59:55.542Z,73.24
2019-04-24T20:00:55.685Z,74.95
2019-04-24T20:01:55.796Z,75.44
2019-04-24T20:02:55.981Z,75.44
2019-04-24T20:03:56.143Z,74.71
2019-04-24T20:04:56.366Z,75.44
2019-04-24T20:05:56.499Z,74.71
2019-04-24T20:06:56.701Z,75.20
2019-04-24T20:07:56.778Z,73.00
2019-04-24T20:08:57.005Z,73.73
2019-04-24T20:09:57.116Z,73.49
2019-04-24T20:10:57.299Z,73.49
2019-04-24T20:11:57.445Z,72.51
2019-04-24T20:12:57.633Z,72.02
2019-04-24T20:13:59.338Z,72.51
2019-04-24T20:14:58.021Z,73.49
2019-04-24T20:15:58.171Z,73.49
2019-04-24T20:16:58.323Z,73.24
2019-04-24T20:17:58.478Z,73.73
2019-04-24T20:18:58.695Z,73.49
2019-04-24T20:19:58.807Z,73.73
2019-04-24T20:20:59.017Z,74.46
2019-04-24T20:21:59.158Z,73.73
2019-04-24T20:22:59.335Z,74.71
2019-04-24T20:23:59.508Z,73.49
2019-04-24T20:24:59.645Z,73.00
2019-04-24T20:26:01.189Z,73.24
2019-04-24T20:26:59.945Z,73.49
2019-04-24T20:28:01.494Z,72.75
2019-04-24T20:29:00.259Z,73.24
2019-04-24T20:30:01.138Z,73.00
2019-04-24T20:31:01.740Z,73.49
2019-04-24T20:32:00.816Z,73.73
2019-04-24T20:33:01.401Z,72.75
2019-04-24T20:34:01.394Z,72.27
2019-04-24T20:35:01.257Z,72.51
2019-04-24T20:36:02.842Z,73.00
2019-04-24T20:37:01.634Z,73.24
2019-04-24T20:38:02.434Z,73.97
2019-04-24T20:39:02.163Z,74.71
2019-04-24T20:40:02.067Z,76.90
2019-04-24T20:41:03.180Z,74.95
2019-04-24T20:42:02.414Z,75.20
2019-04-24T20:43:03.948Z,74.22
2019-04-24T20:44:02.780Z,74.95
2019-04-24T20:45:02.950Z,74.46
2019-04-24T20:46:03.106Z,74.46
2019-04-24T20:47:03.323Z,74.22
2019-04-24T20:48:03.426Z,74.46
2019-04-24T20:49:03.614Z,74.71
2019-04-24T20:50:03.792Z,74.22
2019-04-24T20:51:04.017Z,74.46
2019-04-24T20:52:04.149Z,74.46
2019-04-24T20:53:04.311Z,73.97
2019-04-24T20:54:04.459Z,74.22
2019-04-24T20:55:04.620Z,74.71
2019-04-24T20:56:04.812Z,74.46
2019-04-24T20:57:07.949Z,74.22
2019-04-24T20:58:05.102Z,74.71
2019-04-24T20:59:05.282Z,74.95
